sensor_id;sensor_type;location;lat;lon;timestamp;pressure;altitude;pressure_sealevel;temperature;humidity
80482;BME280;69797;43.864;21.410;2023-06-24T00:00:17;99763.88;;;24.47;80.09
80482;BME280;69797;43.864;21.410;2023-06-24T00:02:45;99769.47;;;24.47;80.55
80482;BME280;69797;43.864;21.410;2023-06-24T00:05:12;99782.69;;;24.55;80.05
80482;BME280;69797;43.864;21.410;2023-06-24T00:07:39;99776.06;;;24.51;80.46
80482;BME280;69797;43.864;21.410;2023-06-24T00:10:15;99800.81;;;24.66;80.56
80482;BME280;69797;43.864;21.410;2023-06-24T00:12:43;99803.16;;;24.73;79.88
80482;BME280;69797;43.864;21.410;2023-06-24T00:15:11;99807.59;;;24.65;79.22
80482;BME280;69797;43.864;21.410;2023-06-24T00:17:38;99802.81;;;24.65;79.98
80482;BME280;69797;43.864;21.410;2023-06-24T00:20:06;99810.56;;;24.69;79.23
80482;BME280;69797;43.864;21.410;2023-06-24T00:22:35;99831.97;;;24.64;80.54
80482;BME280;69797;43.864;21.410;2023-06-24T00:25:02;99862.94;;;24.68;80.50
80482;BME280;69797;43.864;21.410;2023-06-24T00:27:31;99868.41;;;24.82;81.78
80482;BME280;69797;43.864;21.410;2023-06-24T00:29:58;99869.22;;;24.74;80.05
80482;BME280;69797;43.864;21.410;2023-06-24T00:32:28;99876.41;;;24.57;81.99
80482;BME280;69797;43.864;21.410;2023-06-24T00:34:55;99865.22;;;24.35;80.41
80482;BME280;69797;43.864;21.410;2023-06-24T00:37:26;99894.97;;;24.45;81.84
80482;BME280;69797;43.864;21.410;2023-06-24T00:39:53;99901.56;;;24.49;81.32
80482;BME280;69797;43.864;21.410;2023-06-24T00:42:20;99923.88;;;24.62;81.85
80482;BME280;69797;43.864;21.410;2023-06-24T00:44:48;99929.00;;;24.69;80.13
80482;BME280;69797;43.864;21.410;2023-06-24T00:47:15;99917.75;;;24.60;78.71
80482;BME280;69797;43.864;21.410;2023-06-24T00:49:42;99941.03;;;24.70;77.00
80482;BME280;69797;43.864;21.410;2023-06-24T00:52:12;99932.78;;;24.64;76.93
80482;BME280;69797;43.864;21.410;2023-06-24T00:54:43;99939.56;;;24.72;76.55
80482;BME280;69797;43.864;21.410;2023-06-24T00:57:10;99955.44;;;24.85;75.63
80482;BME280;69797;43.864;21.410;2023-06-24T00:59:40;99933.88;;;24.86;75.27
80482;BME280;69797;43.864;21.410;2023-06-24T01:02:09;99957.31;;;24.99;74.23
80482;BME280;69797;43.864;21.410;2023-06-24T01:04:36;99951.69;;;24.90;73.51
80482;BME280;69797;43.864;21.410;2023-06-24T01:07:05;99952.63;;;24.85;73.13
80482;BME280;69797;43.864;21.410;2023-06-24T01:09:32;99975.75;;;24.91;71.15
80482;BME280;69797;43.864;21.410;2023-06-24T01:11:59;99957.03;;;24.78;72.15
80482;BME280;69797;43.864;21.410;2023-06-24T01:14:25;99993.19;;;24.88;71.77
80482;BME280;69797;43.864;21.410;2023-06-24T01:17:21;99975.00;;;24.77;71.38
80482;BME280;69797;43.864;21.410;2023-06-24T01:22:48;99984.22;;;24.69;69.13
80482;BME280;69797;43.864;21.410;2023-06-24T01:25:41;99994.47;;;24.51;69.84
80482;BME280;69797;43.864;21.410;2023-06-24T01:33:46;99995.03;;;24.16;71.17
80482;BME280;69797;43.864;21.410;2023-06-24T01:36:18;100006.84;;;24.13;70.51
80482;BME280;69797;43.864;21.410;2023-06-24T01:38:56;100010.84;;;23.99;71.50
80482;BME280;69797;43.864;21.410;2023-06-24T01:41:26;99998.88;;;23.84;72.46
80482;BME280;69797;43.864;21.410;2023-06-24T01:43:57;100010.19;;;23.79;72.29
80482;BME280;69797;43.864;21.410;2023-06-24T01:46:28;100000.13;;;23.78;72.59
80482;BME280;69797;43.864;21.410;2023-06-24T01:49:03;99992.69;;;23.74;71.92
80482;BME280;69797;43.864;21.410;2023-06-24T01:51:32;100002.22;;;23.73;73.13
80482;BME280;69797;43.864;21.410;2023-06-24T01:54:03;100007.00;;;23.72;72.63
80482;BME280;69797;43.864;21.410;2023-06-24T01:56:32;100000.38;;;23.68;72.49
80482;BME280;69797;43.864;21.410;2023-06-24T01:59:02;100001.69;;;23.57;72.92
80482;BME280;69797;43.864;21.410;2023-06-24T02:01:35;99995.00;;;23.44;73.63
80482;BME280;69797;43.864;21.410;2023-06-24T02:04:03;100004.31;;;23.39;73.50
80482;BME280;69797;43.864;21.410;2023-06-24T02:06:31;100020.03;;;23.49;72.99
80482;BME280;69797;43.864;21.410;2023-06-24T02:09:00;100012.19;;;23.37;73.18
80482;BME280;69797;43.864;21.410;2023-06-24T02:11:31;100015.50;;;23.26;73.11
80482;BME280;69797;43.864;21.410;2023-06-24T02:14:02;100033.50;;;23.33;73.45
80482;BME280;69797;43.864;21.410;2023-06-24T02:16:30;100028.75;;;23.34;73.03
80482;BME280;69797;43.864;21.410;2023-06-24T02:19:00;100022.03;;;23.21;73.32
80482;BME280;69797;43.864;21.410;2023-06-24T02:21:29;100027.50;;;23.26;72.89
80482;BME280;69797;43.864;21.410;2023-06-24T02:24:04;100035.16;;;23.20;73.83
80482;BME280;69797;43.864;21.410;2023-06-24T02:26:31;100030.91;;;23.09;73.89
80482;BME280;69797;43.864;21.410;2023-06-24T02:29:00;100046.22;;;23.12;74.74
80482;BME280;69797;43.864;21.410;2023-06-24T02:31:26;100044.25;;;23.12;75.04
80482;BME280;69797;43.864;21.410;2023-06-24T02:33:53;100046.56;;;23.10;74.51
80482;BME280;69797;43.864;21.410;2023-06-24T02:36:23;100055.03;;;23.19;74.51
80482;BME280;69797;43.864;21.410;2023-06-24T02:38:50;100057.28;;;23.17;73.94
80482;BME280;69797;43.864;21.410;2023-06-24T02:41:16;100058.16;;;23.17;74.24
80482;BME280;69797;43.864;21.410;2023-06-24T02:43:43;100048.91;;;23.17;74.53
80482;BME280;69797;43.864;21.410;2023-06-24T02:46:14;100058.56;;;23.25;75.00
80482;BME280;69797;43.864;21.410;2023-06-24T02:48:42;100051.00;;;23.25;74.10
80482;BME280;69797;43.864;21.410;2023-06-24T02:51:11;100062.00;;;23.35;73.18
80482;BME280;69797;43.864;21.410;2023-06-24T02:53:39;100070.38;;;23.21;73.82
80482;BME280;69797;43.864;21.410;2023-06-24T02:56:08;100076.56;;;23.18;74.70
80482;BME280;69797;43.864;21.410;2023-06-24T02:58:36;100041.38;;;23.04;74.46
80482;BME280;69797;43.864;21.410;2023-06-24T03:01:05;100061.56;;;23.14;74.83
80482;BME280;69797;43.864;21.410;2023-06-24T03:03:34;100067.03;;;23.19;75.15
80482;BME280;69797;43.864;21.410;2023-06-24T03:06:02;100064.88;;;23.30;73.42
80482;BME280;69797;43.864;21.410;2023-06-24T03:08:29;100075.53;;;23.42;74.26
80482;BME280;69797;43.864;21.410;2023-06-24T03:10:59;100061.56;;;23.42;73.55
80482;BME280;69797;43.864;21.410;2023-06-24T03:13:29;100069.31;;;23.45;73.16
80482;BME280;69797;43.864;21.410;2023-06-24T03:15:55;100066.44;;;23.50;75.09
80482;BME280;69797;43.864;21.410;2023-06-24T03:18:22;100071.50;;;23.62;74.64
80482;BME280;69797;43.864;21.410;2023-06-24T03:20:49;100078.75;;;23.77;73.73
80482;BME280;69797;43.864;21.410;2023-06-24T03:23:16;100063.00;;;23.81;72.54
80482;BME280;69797;43.864;21.410;2023-06-24T03:25:45;100055.03;;;23.74;71.84
80482;BME280;69797;43.864;21.410;2023-06-24T03:28:12;100068.38;;;23.77;71.46
80482;BME280;69797;43.864;21.410;2023-06-24T03:30:39;100063.22;;;23.70;73.64
80482;BME280;69797;43.864;21.410;2023-06-24T03:33:06;100072.84;;;23.78;72.06
80482;BME280;69797;43.864;21.410;2023-06-24T03:35:32;100068.19;;;23.74;72.06
80482;BME280;69797;43.864;21.410;2023-06-24T03:38:00;100059.56;;;23.56;72.95
80482;BME280;69797;43.864;21.410;2023-06-24T03:40:27;100080.81;;;23.57;73.08
80482;BME280;69797;43.864;21.410;2023-06-24T03:42:54;100086.91;;;23.59;73.42
80482;BME280;69797;43.864;21.410;2023-06-24T03:45:21;100085.28;;;23.58;73.57
80482;BME280;69797;43.864;21.410;2023-06-24T03:47:47;100082.88;;;23.65;72.63
80482;BME280;69797;43.864;21.410;2023-06-24T03:50:14;100065.69;;;23.58;72.92
80482;BME280;69797;43.864;21.410;2023-06-24T03:52:41;100081.84;;;23.61;72.55
80482;BME280;69797;43.864;21.410;2023-06-24T03:55:10;100079.78;;;23.53;72.55
80482;BME280;69797;43.864;21.410;2023-06-24T03:57:37;100061.13;;;23.49;72.93
80482;BME280;69797;43.864;21.410;2023-06-24T04:00:04;100060.22;;;23.53;73.16
80482;BME280;69797;43.864;21.410;2023-06-24T04:02:47;100044.47;;;23.57;72.87
80482;BME280;69797;43.864;21.410;2023-06-24T04:05:16;100063.41;;;23.74;72.18
80482;BME280;69797;43.864;21.410;2023-06-24T04:07:43;100019.59;;;23.56;72.32
80482;BME280;69797;43.864;21.410;2023-06-24T04:10:13;100046.63;;;23.74;72.15
80482;BME280;69797;43.864;21.410;2023-06-24T04:12:40;100061.56;;;23.83;72.16
80482;BME280;69797;43.864;21.410;2023-06-24T04:15:08;100049.22;;;23.84;72.43
80482;BME280;69797;43.864;21.410;2023-06-24T04:17:35;100053.75;;;23.94;71.07
80482;BME280;69797;43.864;21.410;2023-06-24T04:20:02;100055.81;;;24.02;71.18
80482;BME280;69797;43.864;21.410;2023-06-24T04:22:31;100051.03;;;24.03;70.85
80482;BME280;69797;43.864;21.410;2023-06-24T04:24:58;100049.91;;;24.04;71.40
80482;BME280;69797;43.864;21.410;2023-06-24T04:27:24;100041.81;;;24.02;71.08
80482;BME280;69797;43.864;21.410;2023-06-24T04:29:51;100056.53;;;24.08;70.49
80482;BME280;69797;43.864;21.410;2023-06-24T04:32:18;100063.25;;;24.07;69.63
80482;BME280;69797;43.864;21.410;2023-06-24T04:34:45;100042.78;;;23.98;70.86
80482;BME280;69797;43.864;21.410;2023-06-24T04:37:11;100054.78;;;23.98;70.19
80482;BME280;69797;43.864;21.410;2023-06-24T04:39:40;100054.34;;;24.05;71.46
80482;BME280;69797;43.864;21.410;2023-06-24T04:42:07;100048.31;;;24.11;71.10
80482;BME280;69797;43.864;21.410;2023-06-24T04:44:35;100070.53;;;24.30;70.05
80482;BME280;69797;43.864;21.410;2023-06-24T04:47:02;100070.41;;;24.35;69.78
80482;BME280;69797;43.864;21.410;2023-06-24T04:49:29;100062.84;;;24.36;69.85
80482;BME280;69797;43.864;21.410;2023-06-24T04:51:56;100056.88;;;24.29;69.38
80482;BME280;69797;43.864;21.410;2023-06-24T04:54:23;100070.88;;;24.29;69.37
80482;BME280;69797;43.864;21.410;2023-06-24T04:56:49;100067.16;;;24.20;69.13
80482;BME280;69797;43.864;21.410;2023-06-24T04:59:19;100050.72;;;24.04;69.75
80482;BME280;69797;43.864;21.410;2023-06-24T05:01:49;100063.44;;;24.10;69.72
80482;BME280;69797;43.864;21.410;2023-06-24T05:04:15;100074.41;;;24.21;69.42
80482;BME280;69797;43.864;21.410;2023-06-24T05:06:42;100069.63;;;24.21;69.36
80482;BME280;69797;43.864;21.410;2023-06-24T05:09:09;100072.94;;;24.23;69.66
80482;BME280;69797;43.864;21.410;2023-06-24T05:11:40;100078.13;;;24.30;69.53
80482;BME280;69797;43.864;21.410;2023-06-24T05:14:07;100086.38;;;24.35;69.63
80482;BME280;69797;43.864;21.410;2023-06-24T05:16:40;100082.25;;;24.32;69.46
80482;BME280;69797;43.864;21.410;2023-06-24T05:19:06;100086.31;;;24.40;69.07
80482;BME280;69797;43.864;21.410;2023-06-24T05:21:33;100092.28;;;24.47;69.51
80482;BME280;69797;43.864;21.410;2023-06-24T05:24:02;100085.88;;;24.47;68.87
80482;BME280;69797;43.864;21.410;2023-06-24T05:26:28;100075.16;;;24.49;69.06
80482;BME280;69797;43.864;21.410;2023-06-24T05:28:55;100090.44;;;24.65;68.57
80482;BME280;69797;43.864;21.410;2023-06-24T05:31:22;100087.25;;;24.58;68.64
80482;BME280;69797;43.864;21.410;2023-06-24T05:33:49;100083.25;;;24.50;68.77
80482;BME280;69797;43.864;21.410;2023-06-24T05:36:15;100097.94;;;24.56;69.12
80482;BME280;69797;43.864;21.410;2023-06-24T05:38:42;100095.28;;;24.51;68.83
80482;BME280;69797;43.864;21.410;2023-06-24T05:41:11;100095.28;;;24.51;68.92
80482;BME280;69797;43.864;21.410;2023-06-24T05:43:38;100113.28;;;24.58;68.52
80482;BME280;69797;43.864;21.410;2023-06-24T05:46:07;100115.97;;;24.63;69.23
80482;BME280;69797;43.864;21.410;2023-06-24T05:48:34;100101.72;;;24.51;68.71
80482;BME280;69797;43.864;21.410;2023-06-24T05:51:01;100113.09;;;24.55;69.79
80482;BME280;69797;43.864;21.410;2023-06-24T05:53:28;100094.56;;;24.45;68.84
80482;BME280;69797;43.864;21.410;2023-06-24T05:56:00;100128.50;;;24.44;68.89
80482;BME280;69797;43.864;21.410;2023-06-24T05:58:26;100112.97;;;24.24;69.65
80482;BME280;69797;43.864;21.410;2023-06-24T06:00:53;100139.75;;;24.38;69.16
80482;BME280;69797;43.864;21.410;2023-06-24T06:03:21;100133.47;;;24.33;69.36
80482;BME280;69797;43.864;21.410;2023-06-24T06:05:48;100130.19;;;24.17;70.33
80482;BME280;69797;43.864;21.410;2023-06-24T06:08:15;100147.56;;;24.28;70.57
80482;BME280;69797;43.864;21.410;2023-06-24T06:10:42;100138.69;;;24.39;71.01
80482;BME280;69797;43.864;21.410;2023-06-24T06:13:08;100136.91;;;24.66;69.62
80482;BME280;69797;43.864;21.410;2023-06-24T06:15:35;100136.72;;;24.85;67.92
80482;BME280;69797;43.864;21.410;2023-06-24T06:18:03;100143.66;;;24.87;67.96
80482;BME280;69797;43.864;21.410;2023-06-24T06:20:29;100161.69;;;24.95;67.91
80482;BME280;69797;43.864;21.410;2023-06-24T06:22:56;100158.38;;;24.93;67.45
80482;BME280;69797;43.864;21.410;2023-06-24T06:25:24;100165.69;;;24.80;67.44
80482;BME280;69797;43.864;21.410;2023-06-24T06:27:51;100174.28;;;24.61;68.03
80482;BME280;69797;43.864;21.410;2023-06-24T06:30:18;100159.34;;;24.52;68.54
80482;BME280;69797;43.864;21.410;2023-06-24T06:32:44;100137.19;;;24.42;68.30
80482;BME280;69797;43.864;21.410;2023-06-24T06:35:11;100159.34;;;24.52;68.60
80482;BME280;69797;43.864;21.410;2023-06-24T06:37:38;100152.75;;;24.21;69.49
80482;BME280;69797;43.864;21.410;2023-06-24T06:40:05;100149.72;;;23.94;70.47
80482;BME280;69797;43.864;21.410;2023-06-24T06:42:32;100159.34;;;23.75;71.16
80482;BME280;69797;43.864;21.410;2023-06-24T06:44:59;100160.34;;;23.51;72.04
80482;BME280;69797;43.864;21.410;2023-06-24T06:47:26;100164.16;;;23.41;73.02
80482;BME280;69797;43.864;21.410;2023-06-24T06:49:53;100169.03;;;23.36;73.42
80482;BME280;69797;43.864;21.410;2023-06-24T06:52:24;100134.06;;;23.06;72.46
80482;BME280;69797;43.864;21.410;2023-06-24T06:54:51;100167.34;;;23.35;73.70
80482;BME280;69797;43.864;21.410;2023-06-24T06:57:18;100163.53;;;23.44;72.76
80482;BME280;69797;43.864;21.410;2023-06-24T06:59:44;100169.00;;;23.68;72.17
80482;BME280;69797;43.864;21.410;2023-06-24T07:02:11;100145.34;;;23.75;71.61
80482;BME280;69797;43.864;21.410;2023-06-24T07:04:38;100155.50;;;23.98;71.02
80482;BME280;69797;43.864;21.410;2023-06-24T07:07:05;100151.16;;;23.92;70.79
80482;BME280;69797;43.864;21.410;2023-06-24T07:09:32;100157.06;;;23.77;71.03
80482;BME280;69797;43.864;21.410;2023-06-24T07:12:03;100163.59;;;23.72;70.60
80482;BME280;69797;43.864;21.410;2023-06-24T07:14:30;100162.00;;;23.52;71.00
80482;BME280;69797;43.864;21.410;2023-06-24T07:16:57;100151.84;;;23.29;72.47
80482;BME280;69797;43.864;21.410;2023-06-24T07:19:23;100154.97;;;23.08;73.35
80482;BME280;69797;43.864;21.410;2023-06-24T07:21:51;100156.31;;;22.97;73.48
80482;BME280;69797;43.864;21.410;2023-06-24T07:24:18;100153.50;;;22.97;73.60
80482;BME280;69797;43.864;21.410;2023-06-24T07:26:47;100167.19;;;23.12;73.19
80482;BME280;69797;43.864;21.410;2023-06-24T07:29:14;100172.41;;;23.19;73.84
80482;BME280;69797;43.864;21.410;2023-06-24T07:31:42;100165.56;;;23.11;74.84
80482;BME280;69797;43.864;21.410;2023-06-24T07:34:09;100162.34;;;22.66;75.90
80482;BME280;69797;43.864;21.410;2023-06-24T07:36:36;100179.84;;;22.34;77.82
80482;BME280;69797;43.864;21.410;2023-06-24T07:39:03;100170.59;;;21.96;79.53
80482;BME280;69797;43.864;21.410;2023-06-24T07:41:30;100199.78;;;21.79;80.63
80482;BME280;69797;43.864;21.410;2023-06-24T07:43:56;100198.03;;;21.60;81.85
80482;BME280;69797;43.864;21.410;2023-06-24T07:46:23;100208.50;;;21.73;80.86
80482;BME280;69797;43.864;21.410;2023-06-24T07:48:50;100183.03;;;21.55;79.98
80482;BME280;69797;43.864;21.410;2023-06-24T07:51:17;100197.69;;;21.66;79.41
80482;BME280;69797;43.864;21.410;2023-06-24T07:53:44;100214.66;;;21.70;79.04
80482;BME280;69797;43.864;21.410;2023-06-24T07:56:11;100211.13;;;21.59;79.63
80482;BME280;69797;43.864;21.410;2023-06-24T07:58:40;100224.69;;;21.71;79.53
80482;BME280;69797;43.864;21.410;2023-06-24T08:01:07;100217.91;;;21.77;78.54
80482;BME280;69797;43.864;21.410;2023-06-24T08:03:34;100228.31;;;21.95;78.01
80482;BME280;69797;43.864;21.410;2023-06-24T08:06:01;100233.06;;;21.95;77.33
80482;BME280;69797;43.864;21.410;2023-06-24T08:08:30;100235.56;;;21.96;76.23
80482;BME280;69797;43.864;21.410;2023-06-24T08:10:57;100240.78;;;22.03;75.29
80482;BME280;69797;43.864;21.410;2023-06-24T08:13:26;100234.25;;;21.89;75.86
80482;BME280;69797;43.864;21.410;2023-06-24T08:15:53;100223.09;;;21.89;75.21
80482;BME280;69797;43.864;21.410;2023-06-24T08:18:20;100252.91;;;22.17;74.33
80482;BME280;69797;43.864;21.410;2023-06-24T08:20:47;100254.56;;;22.42;74.21
80482;BME280;69797;43.864;21.410;2023-06-24T08:23:13;100240.66;;;22.56;71.92
80482;BME280;69797;43.864;21.410;2023-06-24T08:25:40;100236.97;;;22.80;71.36
80482;BME280;69797;43.864;21.410;2023-06-24T08:28:07;100246.13;;;23.04;71.59
80482;BME280;69797;43.864;21.410;2023-06-24T08:30:34;100251.09;;;23.26;70.14
80482;BME280;69797;43.864;21.410;2023-06-24T08:33:01;100239.78;;;23.50;70.85
80482;BME280;69797;43.864;21.410;2023-06-24T08:35:27;100236.22;;;23.91;68.39
80482;BME280;69797;43.864;21.410;2023-06-24T08:37:56;100265.75;;;24.25;67.37
80482;BME280;69797;43.864;21.410;2023-06-24T08:40:23;100267.47;;;24.39;67.06
80482;BME280;69797;43.864;21.410;2023-06-24T08:42:52;100242.44;;;24.29;67.30
80482;BME280;69797;43.864;21.410;2023-06-24T08:45:21;100261.22;;;24.29;67.14
80482;BME280;69797;43.864;21.410;2023-06-24T08:47:52;100268.38;;;24.49;65.97
80482;BME280;69797;43.864;21.410;2023-06-24T08:50:19;100265.00;;;24.74;66.95
80482;BME280;69797;43.864;21.410;2023-06-24T08:52:50;100278.28;;;25.19;65.38
80482;BME280;69797;43.864;21.410;2023-06-24T08:55:22;100267.97;;;25.28;64.36
80482;BME280;69797;43.864;21.410;2023-06-24T08:57:49;100274.09;;;25.30;64.92
80482;BME280;69797;43.864;21.410;2023-06-24T09:00:20;100281.72;;;25.16;64.85
80482;BME280;69797;43.864;21.410;2023-06-24T09:02:47;100291.84;;;24.89;65.94
80482;BME280;69797;43.864;21.410;2023-06-24T09:05:14;100290.00;;;24.71;66.31
80482;BME280;69797;43.864;21.410;2023-06-24T09:07:41;100289.13;;;24.48;66.87
80482;BME280;69797;43.864;21.410;2023-06-24T09:10:08;100274.47;;;24.37;66.85
80482;BME280;69797;43.864;21.410;2023-06-24T09:12:35;100275.41;;;24.46;67.17
80482;BME280;69797;43.864;21.410;2023-06-24T09:15:05;100299.56;;;24.56;66.14
80482;BME280;69797;43.864;21.410;2023-06-24T09:17:32;100297.59;;;24.56;66.78
80482;BME280;69797;43.864;21.410;2023-06-24T09:20:06;100296.75;;;24.70;66.36
80482;BME280;69797;43.864;21.410;2023-06-24T09:22:40;100305.56;;;24.77;64.92
80482;BME280;69797;43.864;21.410;2023-06-24T09:25:07;100293.38;;;24.45;65.58
80482;BME280;69797;43.864;21.410;2023-06-24T09:27:34;100298.75;;;24.55;66.23
80482;BME280;69797;43.864;21.410;2023-06-24T09:30:16;100293.84;;;24.75;65.37
80482;BME280;69797;43.864;21.410;2023-06-24T09:32:47;100313.38;;;25.02;65.55
80482;BME280;69797;43.864;21.410;2023-06-24T09:35:21;100305.59;;;25.13;64.52
80482;BME280;69797;43.864;21.410;2023-06-24T09:37:57;100333.06;;;25.25;64.44
80482;BME280;69797;43.864;21.410;2023-06-24T09:40:34;100333.47;;;25.32;64.34
80482;BME280;69797;43.864;21.410;2023-06-24T09:43:02;100321.03;;;25.24;64.15
80482;BME280;69797;43.864;21.410;2023-06-24T09:45:30;100324.75;;;25.33;63.99
80482;BME280;69797;43.864;21.410;2023-06-24T09:47:57;100328.19;;;25.30;63.20
80482;BME280;69797;43.864;21.410;2023-06-24T09:50:24;100317.41;;;25.10;63.78
80482;BME280;69797;43.864;21.410;2023-06-24T09:52:52;100314.97;;;24.95;64.63
80482;BME280;69797;43.864;21.410;2023-06-24T09:55:20;100299.53;;;24.83;64.68
80482;BME280;69797;43.864;21.410;2023-06-24T09:57:50;100307.63;;;24.85;64.93
80482;BME280;69797;43.864;21.410;2023-06-24T10:00:18;100278.56;;;24.81;65.21
80482;BME280;69797;43.864;21.410;2023-06-24T10:02:46;100298.50;;;24.93;64.90
80482;BME280;69797;43.864;21.410;2023-06-24T10:05:16;100290.09;;;24.93;64.86
80482;BME280;69797;43.864;21.410;2023-06-24T10:07:43;100284.19;;;25.17;65.04
80482;BME280;69797;43.864;21.410;2023-06-24T10:10:10;100292.84;;;25.43;63.33
80482;BME280;69797;43.864;21.410;2023-06-24T10:12:42;100272.16;;;25.39;62.71
80482;BME280;69797;43.864;21.410;2023-06-24T10:15:09;100255.13;;;25.35;62.93
80482;BME280;69797;43.864;21.410;2023-06-24T10:17:36;100237.13;;;25.28;63.18
80482;BME280;69797;43.864;21.410;2023-06-24T10:20:04;100231.31;;;25.24;63.73
80482;BME280;69797;43.864;21.410;2023-06-24T10:22:32;100219.03;;;25.11;63.79
80482;BME280;69797;43.864;21.410;2023-06-24T10:25:00;100189.47;;;24.47;66.01
80482;BME280;69797;43.864;21.410;2023-06-24T10:27:28;100191.66;;;24.22;67.82
80482;BME280;69797;43.864;21.410;2023-06-24T10:30:03;100194.47;;;24.22;66.25
80482;BME280;69797;43.864;21.410;2023-06-24T10:32:42;100162.75;;;23.99;67.83
80482;BME280;69797;43.864;21.410;2023-06-24T10:35:24;100150.44;;;23.86;68.16
80482;BME280;69797;43.864;21.410;2023-06-24T10:38:00;100146.81;;;23.86;68.28
80482;BME280;69797;43.864;21.410;2023-06-24T10:40:39;100168.25;;;23.90;69.42
80482;BME280;69797;43.864;21.410;2023-06-24T10:43:26;100153.38;;;24.17;68.15
80482;BME280;69797;43.864;21.410;2023-06-24T10:45:55;100144.56;;;24.24;67.64
80482;BME280;69797;43.864;21.410;2023-06-24T10:48:22;100125.75;;;24.02;67.75
80482;BME280;69797;43.864;21.410;2023-06-24T10:50:52;100109.41;;;23.82;68.96
80482;BME280;69797;43.864;21.410;2023-06-24T10:53:19;100113.13;;;23.91;69.09
80482;BME280;69797;43.864;21.410;2023-06-24T10:55:46;100093.06;;;23.75;69.18
80482;BME280;69797;43.864;21.410;2023-06-24T10:58:15;100096.06;;;23.79;69.43
80482;BME280;69797;43.864;21.410;2023-06-24T11:00:43;100092.84;;;23.58;69.94
80482;BME280;69797;43.864;21.410;2023-06-24T11:03:16;100098.41;;;23.44;70.06
80482;BME280;69797;43.864;21.410;2023-06-24T11:05:45;100104.53;;;23.46;71.30
80482;BME280;69797;43.864;21.410;2023-06-24T11:08:12;100103.06;;;23.35;70.23
80482;BME280;69797;43.864;21.410;2023-06-24T11:10:47;100080.50;;;23.17;71.25
80482;BME280;69797;43.864;21.410;2023-06-24T11:13:20;100080.50;;;23.17;71.44
80482;BME280;69797;43.864;21.410;2023-06-24T11:15:47;100070.63;;;23.06;72.07
80482;BME280;69797;43.864;21.410;2023-06-24T11:18:14;100086.72;;;23.14;71.73
80482;BME280;69797;43.864;21.410;2023-06-24T11:20:41;100086.09;;;23.17;72.07
80482;BME280;69797;43.864;21.410;2023-06-24T11:23:08;100075.94;;;23.08;71.37
80482;BME280;69797;43.864;21.410;2023-06-24T11:25:41;100092.59;;;23.27;71.55
80482;BME280;69797;43.864;21.410;2023-06-24T11:28:16;100081.22;;;23.37;71.43
80482;BME280;69797;43.864;21.410;2023-06-24T11:30:48;100044.25;;;23.12;72.42
80482;BME280;69797;43.864;21.410;2023-06-24T11:33:28;100053.44;;;22.99;73.21
80482;BME280;69797;43.864;21.410;2023-06-24T11:35:55;100037.13;;;22.92;73.75
80482;BME280;69797;43.864;21.410;2023-06-24T11:38:22;100054.81;;;23.02;72.81
80482;BME280;69797;43.864;21.410;2023-06-24T11:40:49;100065.59;;;23.36;71.85
80482;BME280;69797;43.864;21.410;2023-06-24T11:43:16;100086.75;;;23.69;70.63
80482;BME280;69797;43.864;21.410;2023-06-24T11:45:43;100083.91;;;23.97;69.76
80482;BME280;69797;43.864;21.410;2023-06-24T11:48:12;100105.09;;;24.26;69.08
80482;BME280;69797;43.864;21.410;2023-06-24T11:50:38;100120.78;;;24.49;68.69
80482;BME280;69797;43.864;21.410;2023-06-24T11:53:05;100136.91;;;24.66;67.88
80482;BME280;69797;43.864;21.410;2023-06-24T11:55:32;100124.75;;;24.71;67.41
80482;BME280;69797;43.864;21.410;2023-06-24T11:58:03;100129.47;;;24.84;67.09
80482;BME280;69797;43.864;21.410;2023-06-24T12:00:40;100137.72;;;24.89;66.80
80482;BME280;69797;43.864;21.410;2023-06-24T12:03:10;100148.50;;;24.96;66.65
80482;BME280;69797;43.864;21.410;2023-06-24T12:05:40;100139.69;;;24.88;66.62
80482;BME280;69797;43.864;21.410;2023-06-24T12:08:14;100128.31;;;24.85;65.78
80482;BME280;69797;43.864;21.410;2023-06-24T12:10:43;100136.41;;;24.86;66.53
80482;BME280;69797;43.864;21.410;2023-06-24T12:13:11;100157.72;;;24.96;66.34
80482;BME280;69797;43.864;21.410;2023-06-24T12:15:40;100164.19;;;24.97;66.49
80482;BME280;69797;43.864;21.410;2023-06-24T12:18:07;100162.13;;;24.88;67.27
80482;BME280;69797;43.864;21.410;2023-06-24T12:20:34;100160.41;;;25.01;67.03
80482;BME280;69797;43.864;21.410;2023-06-24T12:23:05;100170.09;;;25.18;66.49
80482;BME280;69797;43.864;21.410;2023-06-24T12:25:33;100151.22;;;25.32;66.07
80482;BME280;69797;43.864;21.410;2023-06-24T12:28:03;100160.81;;;25.71;64.76
80482;BME280;69797;43.864;21.410;2023-06-24T12:30:30;100155.16;;;26.02;64.94
80482;BME280;69797;43.864;21.410;2023-06-24T12:32:56;100134.53;;;26.06;64.53
80482;BME280;69797;43.864;21.410;2023-06-24T12:35:24;100142.34;;;26.44;63.58
80482;BME280;69797;43.864;21.410;2023-06-24T12:37:52;100139.41;;;26.49;60.49
80482;BME280;69797;43.864;21.410;2023-06-24T12:40:19;100136.59;;;26.58;61.54
80482;BME280;69797;43.864;21.410;2023-06-24T12:42:46;100148.31;;;26.77;62.62
80482;BME280;69797;43.864;21.410;2023-06-24T12:45:13;100148.16;;;26.91;62.43
80482;BME280;69797;43.864;21.410;2023-06-24T12:47:39;100142.16;;;27.10;61.80
80482;BME280;69797;43.864;21.410;2023-06-24T12:50:07;100145.41;;;27.38;60.79
80482;BME280;69797;43.864;21.410;2023-06-24T12:52:36;100137.69;;;27.65;60.82
80482;BME280;69797;43.864;21.410;2023-06-24T12:55:06;100130.38;;;27.81;60.62